createdAt,value
2022-11-09T00:01:01.796Z,66.00
2022-11-09T00:03:29.558Z,66.00
2022-11-09T00:05:58.053Z,65.80
2022-11-09T00:08:25.849Z,66.00
2022-11-09T00:10:55.045Z,65.80
2022-11-09T00:13:23.415Z,65.80
2022-11-09T00:15:51.364Z,66.00
2022-11-09T00:18:19.137Z,66.00
2022-11-09T00:20:48.193Z,66.10
2022-11-09T00:23:17.129Z,66.00
2022-11-09T00:25:45.340Z,65.90
2022-11-09T00:28:14.822Z,66.00
2022-11-09T00:30:42.818Z,65.80
2022-11-09T00:33:12.419Z,66.00
2022-11-09T00:35:40.443Z,65.90
2022-11-09T00:38:08.275Z,66.10
2022-11-09T00:40:36.117Z,66.00
2022-11-09T00:43:04.303Z,65.90
2022-11-09T00:45:33.466Z,65.90
2022-11-09T00:48:01.266Z,65.60
2022-11-09T00:50:29.287Z,66.00
2022-11-09T00:52:57.067Z,66.30
2022-11-09T00:55:24.921Z,66.10
2022-11-09T00:57:53.491Z,66.10
2022-11-09T01:00:23.610Z,66.20
2022-11-09T01:02:52.735Z,66.10
2022-11-09T01:05:20.827Z,66.00
2022-11-09T01:07:48.609Z,66.00
2022-11-09T01:10:16.344Z,65.90
2022-11-09T01:12:44.088Z,65.80
2022-11-09T01:15:12.035Z,65.80
2022-11-09T01:17:39.788Z,65.70
2022-11-09T01:20:10.158Z,65.90
2022-11-09T01:22:37.918Z,65.80
2022-11-09T01:25:06.474Z,65.80
2022-11-09T01:27:34.727Z,65.90
2022-11-09T01:30:02.506Z,65.90
2022-11-09T01:32:32.974Z,65.70
2022-11-09T01:35:00.906Z,65.70
2022-11-09T01:37:29.998Z,66.00
2022-11-09T01:39:57.760Z,66.70
2022-11-09T01:42:26.439Z,66.10
2022-11-09T01:45:21.652Z,65.90
2022-11-09T01:47:52.791Z,65.90
2022-11-09T01:50:33.193Z,66.20
2022-11-09T01:53:06.506Z,66.10
2022-11-09T01:55:34.698Z,66.20
2022-11-09T01:58:05.335Z,66.20
2022-11-09T02:00:37.388Z,66.50
2022-11-09T02:03:08.703Z,66.70
2022-11-09T02:05:39.598Z,66.80
2022-11-09T02:08:10.838Z,66.60
2022-11-09T02:10:45.540Z,66.60
2022-11-09T02:13:17.699Z,66.40
2022-11-09T02:15:46.175Z,66.40
2022-11-09T02:18:14.271Z,66.30
2022-11-09T02:20:48.512Z,66.50
2022-11-09T02:23:16.862Z,66.40
2022-11-09T02:25:47.467Z,66.30
2022-11-09T02:28:16.308Z,66.30
2022-11-09T02:30:45.540Z,66.20
2022-11-09T02:33:13.317Z,66.30
2022-11-09T02:35:41.098Z,66.30
2022-11-09T02:38:12.388Z,66.50
2022-11-09T02:40:43.635Z,66.50
2022-11-09T02:43:13.052Z,66.50
2022-11-09T02:45:40.827Z,66.50
2022-11-09T02:48:08.615Z,66.60
2022-11-09T02:50:37.107Z,66.60
2022-11-09T02:53:05.162Z,66.70
2022-11-09T02:55:34.234Z,66.60
2022-11-09T02:58:02.152Z,66.60
2022-11-09T03:00:29.904Z,66.70
2022-11-09T03:02:57.793Z,66.60
2022-11-09T03:05:25.536Z,66.50
2022-11-09T03:07:53.319Z,66.60
2022-11-09T03:10:21.133Z,66.60
2022-11-09T03:12:50.243Z,66.70
2022-11-09T03:15:18.420Z,66.80
2022-11-09T03:17:46.227Z,66.80
2022-11-09T03:20:14.075Z,66.80
2022-11-09T03:22:41.830Z,67.50
2022-11-09T03:25:10.332Z,66.90
2022-11-09T03:27:38.126Z,67.00
2022-11-09T03:30:08.895Z,67.00
2022-11-09T03:32:36.655Z,67.00
2022-11-09T03:35:04.672Z,66.90
2022-11-09T03:37:32.503Z,66.80
2022-11-09T03:40:00.260Z,67.00
2022-11-09T03:42:28.028Z,67.10
2022-11-09T03:44:55.758Z,67.00
2022-11-09T03:47:24.935Z,67.00
2022-11-09T03:49:52.702Z,66.90
2022-11-09T03:52:20.479Z,67.00
2022-11-09T03:54:48.241Z,66.80
2022-11-09T03:57:15.988Z,66.80
2022-11-09T03:59:43.755Z,67.00
2022-11-09T04:02:11.596Z,67.30
2022-11-09T04:04:40.711Z,68.20
2022-11-09T04:07:08.542Z,67.90
2022-11-09T04:09:36.713Z,69.20
2022-11-09T04:12:05.481Z,68.50
2022-11-09T04:14:33.343Z,68.30
2022-11-09T04:17:01.124Z,68.40
2022-11-09T04:19:28.902Z,69.20
2022-11-09T04:21:58.083Z,68.70
2022-11-09T04:24:25.934Z,68.80
2022-11-09T04:26:53.700Z,68.50
2022-11-09T04:29:21.470Z,68.50
2022-11-09T04:31:49.700Z,69.00
2022-11-09T04:34:17.760Z,68.70
2022-11-09T04:36:45.927Z,68.70
2022-11-09T04:39:15.174Z,68.80
2022-11-09T04:41:43.011Z,68.80
2022-11-09T04:44:10.943Z,68.60
2022-11-09T04:46:38.726Z,69.10
2022-11-09T04:49:06.613Z,68.90
2022-11-09T04:51:34.356Z,68.50
2022-11-09T04:54:02.154Z,68.60
2022-11-09T04:56:31.245Z,68.80
2022-11-09T04:58:59.046Z,68.80
2022-11-09T05:01:26.820Z,69.10
2022-11-09T05:03:54.612Z,68.80
2022-11-09T05:06:39.091Z,69.20
2022-11-09T05:09:08.388Z,68.90
2022-11-09T05:11:38.012Z,69.00
2022-11-09T05:14:05.904Z,69.00
2022-11-09T05:16:33.745Z,69.20
2022-11-09T05:19:01.535Z,69.00
2022-11-09T05:21:29.293Z,69.10
2022-11-09T05:23:59.097Z,69.00
2022-11-09T05:26:28.835Z,69.00
2022-11-09T05:28:59.008Z,69.00
2022-11-09T05:31:27.792Z,68.70
2022-11-09T05:33:56.189Z,68.80
2022-11-09T05:36:24.566Z,68.80
2022-11-09T05:38:52.485Z,68.60
2022-11-09T05:41:20.427Z,68.80
2022-11-09T05:43:48.419Z,68.90
2022-11-09T05:46:18.975Z,68.80
2022-11-09T05:48:47.273Z,68.70
2022-11-09T05:51:16.252Z,68.80
2022-11-09T05:53:46.666Z,68.80
2022-11-09T05:56:15.552Z,68.70
2022-11-09T05:58:43.858Z,68.80
2022-11-09T06:01:14.030Z,68.50
2022-11-09T06:03:44.226Z,68.70
2022-11-09T06:06:14.239Z,68.90
2022-11-09T06:08:42.042Z,68.90
2022-11-09T06:11:11.565Z,68.90
2022-11-09T06:13:39.381Z,68.90
2022-11-09T06:16:07.738Z,68.90
2022-11-09T06:18:37.303Z,69.00
2022-11-09T06:21:07.316Z,69.00
2022-11-09T06:23:35.126Z,69.20
2022-11-09T06:26:06.302Z,69.10
2022-11-09T06:28:34.647Z,69.10
2022-11-09T06:31:04.288Z,69.20
2022-11-09T06:33:33.353Z,69.10
2022-11-09T06:36:01.511Z,69.10
2022-11-09T06:38:30.943Z,69.00
2022-11-09T06:41:00.422Z,69.20
2022-11-09T06:43:29.118Z,69.20
2022-11-09T06:45:57.375Z,69.20
2022-11-09T06:48:25.161Z,69.00
2022-11-09T06:50:52.889Z,69.20
2022-11-09T06:53:21.206Z,69.20
2022-11-09T06:55:51.192Z,69.00
2022-11-09T06:58:19.933Z,69.20
2022-11-09T07:00:48.009Z,69.20
2022-11-09T07:03:16.405Z,69.20
2022-11-09T07:05:44.943Z,68.90
2022-11-09T07:08:13.755Z,69.30
2022-11-09T07:10:41.964Z,69.20
2022-11-09T07:13:12.486Z,70.10
2022-11-09T07:15:40.571Z,69.70
2022-11-09T07:18:12.325Z,69.30
2022-11-09T07:20:40.093Z,69.50
2022-11-09T07:23:07.847Z,69.20
2022-11-09T07:25:35.950Z,69.40
2022-11-09T07:28:04.676Z,69.50
2022-11-09T07:30:33.875Z,69.70
2022-11-09T07:33:09.142Z,69.70
2022-11-09T07:35:37.524Z,69.70
2022-11-09T07:38:05.293Z,69.50
2022-11-09T07:40:33.047Z,69.40
2022-11-09T07:43:01.200Z,69.60
2022-11-09T07:45:29.202Z,69.70
2022-11-09T07:47:59.562Z,69.60
2022-11-09T07:50:28.470Z,69.60
2022-11-09T07:52:57.426Z,69.50
2022-11-09T07:55:26.780Z,69.40
2022-11-09T07:57:58.125Z,69.50
2022-11-09T08:00:26.753Z,69.50
2022-11-09T08:02:54.831Z,69.70
2022-11-09T08:05:24.667Z,69.20
2022-11-09T08:07:56.035Z,69.20
2022-11-09T08:10:24.381Z,69.10
2022-11-09T08:12:56.363Z,69.20
2022-11-09T08:15:24.671Z,69.20
2022-11-09T08:17:52.885Z,70.00
2022-11-09T08:20:21.256Z,69.50
2022-11-09T08:22:50.467Z,69.50
2022-11-09T08:25:18.408Z,69.60
2022-11-09T08:27:46.150Z,69.60
2022-11-09T08:30:16.681Z,69.40
2022-11-09T08:32:45.348Z,69.30
2022-11-09T08:35:17.683Z,69.10
2022-11-09T08:37:48.154Z,69.20
2022-11-09T08:40:19.257Z,69.50
2022-11-09T08:42:47.538Z,69.20
2022-11-09T08:45:16.148Z,69.20
2022-11-09T08:47:44.518Z,69.30
2022-11-09T08:50:14.056Z,69.00
2022-11-09T08:52:42.131Z,69.10
2022-11-09T08:55:10.416Z,69.00
2022-11-09T08:57:39.580Z,69.00
2022-11-09T09:00:08.767Z,68.90
2022-11-09T09:02:36.584Z,68.90
2022-11-09T09:05:04.835Z,68.80
2022-11-09T09:07:32.595Z,69.00
2022-11-09T09:10:00.364Z,69.10
2022-11-09T09:12:28.125Z,69.00
2022-11-09T09:14:57.343Z,68.70
2022-11-09T09:17:25.375Z,68.80
2022-11-09T09:19:53.362Z,69.00
2022-11-09T09:22:21.261Z,69.20
2022-11-09T09:24:49.247Z,69.20
2022-11-09T09:27:17.038Z,69.20
2022-11-09T09:29:44.846Z,69.40
2022-11-09T09:32:14.196Z,68.90
2022-11-09T09:34:42.192Z,68.60
2022-11-09T09:37:10.070Z,68.70
2022-11-09T09:39:37.838Z,68.40
2022-11-09T09:42:08.372Z,68.40
2022-11-09T09:44:41.939Z,68.40
2022-11-09T09:47:15.378Z,68.60
2022-11-09T09:49:46.661Z,68.40
2022-11-09T09:52:22.610Z,68.10
2022-11-09T09:54:55.636Z,68.10
2022-11-09T09:57:25.330Z,68.80
2022-11-09T09:59:55.793Z,68.20
2022-11-09T10:02:27.811Z,68.20
2022-11-09T10:04:58.224Z,68.30
2022-11-09T10:07:30.704Z,68.20
2022-11-09T10:10:18.344Z,68.50
2022-11-09T10:13:13.236Z,68.70
2022-11-09T10:15:47.473Z,68.90
2022-11-09T10:18:30.372Z,68.90
2022-11-09T10:21:17.820Z,68.80
2022-11-09T10:23:58.329Z,68.80
2022-11-09T10:26:34.815Z,68.80
2022-11-09T10:29:17.058Z,68.70
2022-11-09T10:31:46.746Z,68.60
2022-11-09T10:34:19.597Z,68.80
2022-11-09T10:36:54.721Z,69.00
2022-11-09T10:39:25.989Z,68.50
2022-11-09T10:41:53.807Z,68.30
2022-11-09T10:44:21.801Z,68.30
2022-11-09T10:47:11.184Z,68.20
2022-11-09T10:49:41.454Z,68.00
2022-11-09T10:52:31.322Z,68.10
2022-11-09T10:55:18.497Z,67.40
2022-11-09T10:57:55.713Z,67.60
2022-11-09T11:00:23.970Z,67.80
2022-11-09T11:02:53.257Z,67.70
2022-11-09T11:05:26.407Z,67.30
2022-11-09T11:07:54.220Z,67.10
2022-11-09T11:10:22.825Z,67.10
2022-11-09T11:13:13.094Z,67.10
2022-11-09T11:15:42.504Z,67.20
2022-11-09T11:18:18.134Z,66.90
2022-11-09T11:20:47.534Z,67.00
2022-11-09T11:23:17.617Z,66.80
2022-11-09T11:26:05.837Z,66.60
2022-11-09T11:28:40.509Z,66.60
2022-11-09T11:31:13.531Z,66.70
2022-11-09T11:33:41.393Z,66.60
2022-11-09T11:36:19.172Z,66.20
2022-11-09T11:38:55.958Z,66.40
2022-11-09T11:41:40.250Z,66.70
2022-11-09T11:44:18.652Z,66.70
2022-11-09T11:46:48.908Z,66.60
2022-11-09T11:49:37.411Z,66.40
2022-11-09T11:52:15.099Z,66.50
2022-11-09T11:54:52.673Z,66.70
2022-11-09T11:57:28.989Z,67.10
2022-11-09T12:00:10.535Z,67.10
2022-11-09T12:03:08.221Z,67.10
2022-11-09T12:05:53.990Z,67.10
2022-11-09T12:08:28.855Z,67.10
2022-11-09T12:11:04.463Z,67.20
2022-11-09T12:13:54.266Z,67.10
2022-11-09T12:16:29.791Z,67.20
2022-11-09T12:19:10.674Z,67.20
2022-11-09T12:21:45.159Z,67.30
2022-11-09T12:24:23.423Z,67.10
2022-11-09T12:27:30.278Z,67.10
2022-11-09T12:30:00.782Z,66.80
2022-11-09T12:32:34.107Z,66.60
2022-11-09T12:35:17.206Z,66.40
2022-11-09T12:37:49.393Z,66.30
2022-11-09T12:40:27.486Z,66.40
2022-11-09T12:43:01.592Z,66.10
2022-11-09T12:45:33.152Z,66.10
2022-11-09T12:48:05.898Z,65.90
2022-11-09T12:50:35.522Z,66.20
2022-11-09T12:53:04.430Z,66.30
2022-11-09T12:55:43.367Z,66.20
2022-11-09T12:58:23.399Z,66.30
2022-11-09T13:00:54.363Z,66.20
2022-11-09T13:03:25.586Z,66.20
2022-11-09T13:06:17.811Z,66.00
2022-11-09T13:08:58.300Z,65.70
2022-11-09T13:11:39.610Z,65.10
2022-11-09T13:14:34.977Z,65.60
2022-11-09T13:17:24.240Z,65.60
2022-11-09T13:19:55.255Z,65.40
2022-11-09T13:22:58.868Z,65.30
2022-11-09T13:25:50.916Z,65.60
2022-11-09T13:28:45.575Z,64.80
2022-11-09T13:31:13.556Z,64.90
2022-11-09T13:33:42.221Z,65.20
2022-11-09T13:36:20.692Z,65.10
2022-11-09T13:39:28.639Z,65.10
2022-11-09T13:41:56.448Z,65.10
2022-11-09T13:44:32.539Z,65.10
2022-11-09T13:47:03.774Z,65.00
2022-11-09T13:49:45.688Z,65.20
2022-11-09T13:52:43.036Z,65.40
2022-11-09T13:55:27.570Z,65.20
2022-11-09T13:57:56.984Z,65.70
2022-11-09T14:00:27.601Z,65.80
2022-11-09T14:03:03.171Z,65.80
2022-11-09T14:05:33.366Z,66.00
2022-11-09T14:08:03.957Z,65.90
2022-11-09T14:10:49.534Z,66.00
2022-11-09T14:13:48.806Z,66.00
2022-11-09T14:16:27.478Z,65.90
2022-11-09T14:19:10.846Z,66.10
2022-11-09T14:21:46.495Z,66.80
2022-11-09T14:24:17.963Z,65.90
2022-11-09T14:27:03.974Z,65.80
2022-11-09T14:29:33.055Z,65.50
2022-11-09T14:32:04.429Z,65.10
2022-11-09T14:34:32.227Z,64.90
2022-11-09T14:37:04.671Z,64.90
2022-11-09T14:39:34.982Z,64.90
2022-11-09T14:42:02.805Z,64.90
2022-11-09T14:44:35.761Z,64.30
2022-11-09T14:47:05.819Z,65.30
2022-11-09T14:49:33.923Z,64.50
2022-11-09T14:52:02.231Z,64.30
2022-11-09T14:54:30.171Z,64.50
2022-11-09T14:56:58.625Z,63.90
2022-11-09T14:59:31.054Z,64.20
2022-11-09T15:02:01.745Z,64.60
2022-11-09T15:04:31.215Z,64.60
2022-11-09T15:07:02.359Z,64.70
2022-11-09T15:09:35.727Z,64.60
2022-11-09T15:12:04.057Z,64.50
2022-11-09T15:14:35.004Z,64.50
2022-11-09T15:17:11.959Z,64.60
2022-11-09T15:19:51.297Z,64.80
2022-11-09T15:22:47.926Z,64.90
2022-11-09T15:25:21.696Z,64.50
2022-11-09T15:27:59.828Z,64.60
2022-11-09T15:30:33.717Z,64.90
2022-11-09T15:33:01.739Z,64.60
2022-11-09T15:35:30.852Z,64.40
2022-11-09T15:37:58.664Z,64.40
2022-11-09T15:40:26.876Z,64.40
2022-11-09T15:42:54.605Z,64.50
2022-11-09T15:45:22.464Z,64.60
2022-11-09T15:47:53.386Z,64.30
2022-11-09T15:50:23.772Z,64.90
2022-11-09T15:52:53.485Z,64.60
2022-11-09T15:55:23.612Z,64.80
2022-11-09T15:57:52.618Z,64.60
2022-11-09T16:00:22.383Z,64.90
2022-11-09T16:02:50.491Z,65.00
2022-11-09T16:05:19.626Z,64.80
2022-11-09T16:07:52.819Z,65.00
2022-11-09T16:10:23.280Z,65.00
2022-11-09T16:12:53.003Z,64.70
2022-11-09T16:15:21.199Z,65.00
2022-11-09T16:17:50.302Z,65.10
2022-11-09T16:20:18.777Z,65.00
2022-11-09T16:22:47.135Z,65.10
2022-11-09T16:25:16.781Z,64.90
2022-11-09T16:27:52.209Z,64.70
2022-11-09T16:30:21.230Z,64.60
2022-11-09T16:32:49.006Z,64.50
2022-11-09T16:35:27.239Z,64.80
2022-11-09T16:37:56.330Z,64.60
2022-11-09T16:40:26.843Z,64.80
2022-11-09T16:42:54.620Z,64.70
2022-11-09T16:45:22.659Z,64.80
2022-11-09T16:47:56.228Z,64.80
2022-11-09T16:50:24.070Z,64.90
2022-11-09T16:52:51.830Z,64.90
2022-11-09T16:55:19.608Z,64.80
2022-11-09T16:57:48.725Z,64.80
2022-11-09T17:00:19.749Z,64.90
2022-11-09T17:02:47.525Z,65.00
2022-11-09T17:05:15.427Z,64.90
2022-11-09T17:07:43.249Z,64.90
2022-11-09T17:10:11.888Z,64.90
2022-11-09T17:12:39.682Z,64.90
2022-11-09T17:15:10.067Z,64.90
2022-11-09T17:17:37.855Z,65.00
2022-11-09T17:20:07.075Z,65.10
2022-11-09T17:22:34.942Z,65.00
2022-11-09T17:25:03.030Z,65.10
2022-11-09T17:27:30.804Z,65.00
2022-11-09T17:29:58.584Z,65.00
2022-11-09T17:32:28.214Z,65.00
2022-11-09T17:34:56.170Z,65.00
2022-11-09T17:37:24.080Z,65.00
2022-11-09T17:39:51.847Z,65.10
2022-11-09T17:42:19.597Z,65.00
2022-11-09T17:44:47.313Z,64.80
2022-11-09T17:47:15.185Z,64.80
2022-11-09T17:49:44.320Z,64.70
2022-11-09T17:52:12.063Z,64.50
2022-11-09T17:54:39.831Z,64.70
2022-11-09T17:57:07.572Z,64.80
2022-11-09T17:59:35.393Z,64.80
2022-11-09T18:02:03.144Z,64.90
2022-11-09T18:04:30.907Z,64.80
2022-11-09T18:07:00.084Z,64.50
2022-11-09T18:09:40.830Z,64.20
2022-11-09T18:12:09.948Z,64.30
2022-11-09T18:14:38.007Z,64.20
2022-11-09T18:17:05.738Z,64.50
2022-11-09T18:19:33.838Z,65.70
2022-11-09T18:22:04.256Z,66.50
2022-11-09T18:24:34.318Z,66.90
2022-11-09T18:27:02.247Z,67.00
2022-11-09T18:29:30.075Z,66.60
2022-11-09T18:31:57.842Z,67.50
2022-11-09T18:34:25.612Z,67.60
2022-11-09T18:36:53.877Z,67.10
2022-11-09T18:39:25.821Z,67.10
2022-11-09T18:41:54.518Z,66.90
2022-11-09T18:44:22.270Z,66.90
2022-11-09T18:46:50.015Z,66.90
2022-11-09T18:49:19.985Z,67.00
2022-11-09T18:51:47.744Z,67.10
2022-11-09T18:54:15.498Z,67.10
2022-11-09T18:56:46.053Z,67.00
2022-11-09T18:59:14.063Z,67.00
2022-11-09T19:01:41.877Z,67.10
2022-11-09T19:04:12.867Z,67.20
2022-11-09T19:06:40.679Z,67.20
2022-11-09T19:09:28.601Z,67.10
2022-11-09T19:11:58.102Z,67.40
2022-11-09T19:14:26.589Z,67.10
2022-11-09T19:16:54.945Z,67.20
2022-11-09T19:19:24.510Z,67.00
2022-11-09T19:21:54.798Z,67.20
2022-11-09T19:24:24.771Z,67.10
2022-11-09T19:26:54.545Z,67.10
2022-11-09T19:29:23.629Z,67.10
2022-11-09T19:31:51.503Z,67.00
2022-11-09T19:34:21.795Z,67.10
2022-11-09T19:36:49.585Z,67.50
2022-11-09T19:39:18.510Z,67.40
2022-11-09T19:41:46.320Z,67.40
2022-11-09T19:44:14.886Z,67.50
2022-11-09T19:46:44.051Z,67.30
2022-11-09T19:49:12.031Z,67.60
2022-11-09T19:51:40.358Z,67.40
2022-11-09T19:54:08.411Z,67.70
2022-11-09T19:56:37.176Z,67.50
2022-11-09T19:59:05.757Z,67.90
2022-11-09T20:01:33.561Z,67.80
2022-11-09T20:04:06.480Z,67.90
2022-11-09T20:06:38.262Z,67.90
2022-11-09T20:09:06.440Z,68.10
2022-11-09T20:11:51.925Z,68.10
2022-11-09T20:14:20.474Z,68.30
2022-11-09T20:16:49.080Z,68.20
2022-11-09T20:19:18.410Z,68.20
2022-11-09T20:21:46.189Z,68.20
2022-11-09T20:24:15.127Z,68.40
2022-11-09T20:26:43.872Z,68.50
2022-11-09T20:29:11.688Z,68.50
2022-11-09T20:31:40.252Z,68.60
2022-11-09T20:34:08.196Z,68.40
2022-11-09T20:36:37.381Z,68.30
2022-11-09T20:39:05.744Z,68.60
2022-11-09T20:41:33.764Z,68.50
2022-11-09T20:44:01.583Z,68.30
2022-11-09T20:46:35.397Z,68.30
2022-11-09T20:49:04.711Z,68.30
2022-11-09T20:51:32.527Z,68.10
2022-11-09T20:54:06.921Z,68.10
2022-11-09T20:56:35.354Z,68.20
2022-11-09T20:59:03.163Z,68.10
2022-11-09T21:01:31.164Z,68.00
2022-11-09T21:04:00.448Z,68.10
2022-11-09T21:06:28.315Z,68.20
2022-11-09T21:08:56.934Z,68.00
2022-11-09T21:11:28.679Z,68.10
2022-11-09T21:13:57.435Z,68.30
2022-11-09T21:16:25.306Z,68.20
2022-11-09T21:18:53.254Z,68.40
2022-11-09T21:21:23.576Z,68.20
2022-11-09T21:24:09.210Z,68.10
2022-11-09T21:26:55.664Z,68.20
2022-11-09T21:29:42.759Z,68.20
2022-11-09T21:32:11.995Z,68.10
2022-11-09T21:34:40.128Z,68.10
2022-11-09T21:37:08.440Z,68.20
2022-11-09T21:39:36.472Z,68.30
2022-11-09T21:42:06.063Z,68.40
2022-11-09T21:44:34.843Z,68.20
2022-11-09T21:47:03.319Z,68.30
2022-11-09T21:49:31.183Z,68.00
2022-11-09T21:52:00.422Z,68.00
2022-11-09T21:54:29.182Z,67.70
2022-11-09T21:56:57.419Z,67.60
2022-11-09T21:59:26.570Z,67.40
2022-11-09T22:01:54.424Z,67.40
2022-11-09T22:04:22.268Z,67.40
2022-11-09T22:06:50.038Z,67.70
2022-11-09T22:09:19.493Z,67.60
2022-11-09T22:12:05.384Z,68.00
2022-11-09T22:14:52.219Z,67.70
2022-11-09T22:17:19.963Z,67.80
2022-11-09T22:20:05.153Z,68.00
2022-11-09T22:22:33.885Z,68.00
2022-11-09T22:25:01.693Z,68.00
2022-11-09T22:27:31.052Z,68.00
2022-11-09T22:30:00.490Z,68.10
2022-11-09T22:32:28.375Z,68.30
2022-11-09T22:34:56.155Z,68.20
2022-11-09T22:37:23.988Z,68.10
2022-11-09T22:39:51.793Z,68.20
2022-11-09T22:42:19.563Z,68.20
2022-11-09T22:44:50.460Z,68.30
2022-11-09T22:47:19.631Z,68.50
2022-11-09T22:49:47.398Z,68.50
2022-11-09T22:52:16.355Z,68.40
2022-11-09T22:54:44.107Z,68.40
2022-11-09T22:57:11.867Z,68.40
2022-11-09T22:59:39.631Z,68.30
2022-11-09T23:02:07.447Z,68.40
2022-11-09T23:04:36.545Z,68.40
2022-11-09T23:07:04.362Z,68.20
2022-11-09T23:09:32.169Z,68.30
2022-11-09T23:11:59.927Z,68.30
2022-11-09T23:14:41.657Z,68.40
2022-11-09T23:17:29.422Z,68.50
2022-11-09T23:19:57.611Z,68.40
2022-11-09T23:22:25.400Z,68.40
2022-11-09T23:25:10.911Z,68.40
2022-11-09T23:27:38.649Z,68.50
2022-11-09T23:30:07.370Z,68.50
2022-11-09T23:32:35.535Z,68.50
2022-11-09T23:35:05.874Z,68.70
2022-11-09T23:37:33.682Z,68.70
2022-11-09T23:40:01.487Z,68.70
2022-11-09T23:42:29.274Z,68.50
2022-11-09T23:44:57.150Z,68.40
2022-11-09T23:47:24.946Z,68.70
2022-11-09T23:49:52.725Z,68.60
2022-11-09T23:52:21.919Z,68.40
2022-11-09T23:54:49.667Z,68.40
2022-11-09T23:57:17.454Z,68.70
2022-11-09T23:59:45.195Z,68.60
